createdAt,value
2022-11-22T06:31:25.759Z,33.95
2022-11-22T06:36:47.110Z,31.02
2022-11-22T06:42:07.999Z,31.15
2022-11-22T06:47:28.766Z,30.48
2022-11-22T06:52:53.388Z,29.05
2022-11-22T06:58:14.589Z,28.20
2022-11-22T07:03:36.741Z,28.27
2022-11-22T07:08:59.359Z,29.35
2022-11-22T07:14:20.480Z,26.35
2022-11-22T07:19:41.325Z,28.65
2022-11-22T07:25:02.274Z,30.95
2022-11-22T07:30:23.016Z,29.27
2022-11-22T07:35:43.868Z,27.55
2022-11-22T07:41:05.714Z,27.50
2022-11-22T07:46:31.306Z,27.17
2022-11-22T07:51:53.572Z,29.63
2022-11-22T07:57:14.203Z,28.55
2022-11-22T08:02:37.412Z,30.17
2022-11-22T08:07:58.576Z,29.13
2022-11-22T08:13:19.279Z,29.50
2022-11-22T08:18:41.312Z,29.30
2022-11-22T08:24:02.239Z,29.23
2022-11-22T08:29:23.151Z,31.23
2022-11-22T08:34:47.138Z,29.85
2022-11-22T08:40:09.318Z,31.15
2022-11-22T08:45:30.251Z,30.00
2022-11-22T08:50:53.052Z,27.40
2022-11-22T08:56:15.765Z,30.80
2022-11-22T09:01:37.174Z,30.60
2022-11-22T09:12:44.595Z,31.92
2022-11-22T09:18:05.731Z,31.58
2022-11-22T09:23:26.612Z,30.00
2022-11-22T09:28:47.763Z,31.65
2022-11-22T09:39:29.813Z,30.80
2022-11-22T09:50:40.539Z,27.08
2022-11-22T09:56:07.787Z,29.20
2022-11-22T10:01:34.936Z,31.20
2022-11-22T10:07:00.476Z,32.75
2022-11-22T10:12:52.856Z,31.40
2022-11-22T10:23:37.887Z,29.58
2022-11-22T10:29:04.862Z,31.30
2022-11-22T10:34:55.651Z,30.35
2022-11-22T10:40:28.233Z,31.88
2022-11-22T10:46:01.041Z,30.52
2022-11-22T10:51:40.469Z,30.55
2022-11-22T10:57:25.963Z,29.55
2022-11-22T11:02:47.022Z,30.17
2022-11-22T11:08:39.192Z,30.38
2022-11-22T11:14:05.726Z,29.05
2022-11-22T11:19:30.643Z,29.55
2022-11-22T11:24:52.573Z,29.35
2022-11-22T11:30:13.807Z,31.80
2022-11-22T11:35:34.846Z,31.38
2022-11-22T11:40:55.601Z,30.48
2022-11-22T11:46:28.364Z,31.20
2022-11-22T11:52:18.975Z,32.08
2022-11-22T11:58:21.597Z,31.17
2022-11-22T12:03:42.579Z,30.83
2022-11-22T12:09:26.668Z,31.42
2022-11-22T12:15:10.786Z,32.42
2022-11-22T12:20:59.781Z,33.75
2022-11-22T12:26:21.205Z,32.75
2022-11-22T12:32:15.142Z,32.58
2022-11-22T12:37:42.229Z,30.90
2022-11-22T12:43:11.486Z,29.95
2022-11-22T12:48:50.696Z,29.23
2022-11-22T12:54:17.136Z,30.17
2022-11-22T12:59:46.176Z,30.30
2022-11-22T13:05:26.763Z,30.95
2022-11-22T13:10:59.919Z,29.02
2022-11-22T13:16:20.558Z,31.40
2022-11-22T13:21:44.462Z,30.00
2022-11-22T13:27:11.137Z,33.45
2022-11-22T13:32:34.449Z,29.65
2022-11-22T13:37:58.480Z,29.95
2022-11-22T13:43:22.579Z,32.38
2022-11-22T13:48:43.884Z,31.27
2022-11-22T13:54:46.411Z,32.13
2022-11-22T14:00:16.676Z,31.80
2022-11-22T14:05:42.067Z,32.00
2022-11-22T14:11:08.888Z,32.95
2022-11-22T14:16:40.019Z,32.85
2022-11-22T14:22:19.275Z,33.70
2022-11-22T14:27:43.123Z,33.05
2022-11-22T14:33:06.501Z,33.78
2022-11-22T14:38:32.046Z,35.92
2022-11-22T14:43:54.901Z,33.75
2022-11-22T14:49:30.205Z,32.65
2022-11-22T14:54:59.321Z,33.90
2022-11-22T15:00:22.799Z,32.95
2022-11-22T15:09:10.677Z,35.95
2022-11-22T15:12:59.907Z,34.83
2022-11-22T15:58:56.840Z,33.95
2022-11-22T16:04:31.878Z,34.25
2022-11-22T16:09:52.603Z,34.47
2022-11-22T16:15:25.507Z,35.67
2022-11-22T16:21:15.556Z,33.85
2022-11-22T16:26:36.543Z,32.60
2022-11-22T16:32:02.708Z,33.95
2022-11-22T16:37:37.487Z,34.13
2022-11-22T16:43:08.263Z,33.53
2022-11-22T16:48:32.628Z,35.97
2022-11-22T16:53:54.747Z,33.03
2022-11-22T16:59:15.974Z,34.35
2022-11-22T17:04:40.858Z,34.75
2022-11-22T17:10:03.083Z,32.95
2022-11-22T17:15:25.868Z,34.70
2022-11-22T17:20:48.053Z,33.95
2022-11-22T17:26:10.738Z,34.40
2022-11-22T17:31:31.672Z,33.17
2022-11-22T17:36:52.412Z,32.85
2022-11-22T17:42:15.251Z,32.10
2022-11-22T17:47:36.067Z,32.03
2022-11-22T17:52:56.940Z,32.45
2022-11-22T17:58:17.835Z,33.72
2022-11-22T18:03:39.886Z,31.80
2022-11-22T18:09:01.223Z,32.05
2022-11-22T18:14:23.352Z,32.75
2022-11-22T18:19:44.472Z,30.30
2022-11-22T18:25:05.836Z,31.55
2022-11-22T18:30:26.646Z,32.42
2022-11-22T18:35:56.197Z,32.38
2022-11-22T18:41:18.128Z,32.75
2022-11-22T18:46:39.844Z,30.52
2022-11-22T18:52:00.944Z,29.25
2022-11-22T18:57:22.125Z,32.33
2022-11-22T19:02:42.885Z,30.92
2022-11-22T19:08:03.786Z,30.58
2022-11-22T19:13:24.604Z,31.00
2022-11-22T19:18:45.595Z,31.17
2022-11-22T19:24:06.532Z,30.25
2022-11-22T19:29:27.592Z,33.17
2022-11-22T19:34:48.311Z,29.75
2022-11-22T19:40:11.106Z,29.17
2022-11-22T19:45:32.127Z,30.13
2022-11-22T19:50:53.104Z,31.08
2022-11-22T19:56:17.441Z,29.77
2022-11-22T20:01:39.785Z,30.38
2022-11-22T20:07:00.794Z,31.63
2022-11-22T20:12:21.709Z,29.42
2022-11-22T20:17:42.442Z,31.00
2022-11-22T20:23:03.259Z,30.40
2022-11-22T20:28:24.142Z,31.65
2022-11-22T20:33:47.885Z,31.92
2022-11-22T20:39:10.633Z,34.80
2022-11-22T20:44:33.976Z,33.42
2022-11-22T20:49:54.811Z,30.35
2022-11-22T20:55:16.127Z,33.65
2022-11-22T21:00:38.456Z,33.22
2022-11-22T21:06:00.968Z,32.85
2022-11-22T21:11:24.518Z,32.30
2022-11-22T21:16:45.526Z,33.20
2022-11-22T21:22:06.832Z,33.63
2022-11-22T21:27:27.696Z,33.20
2022-11-22T21:32:48.661Z,32.90
2022-11-22T21:38:09.728Z,31.52
2022-11-22T21:43:31.211Z,31.67
2022-11-22T21:48:52.413Z,32.88
2022-11-22T21:54:13.592Z,32.05
2022-11-22T21:59:34.508Z,36.00
2022-11-22T22:04:55.307Z,34.90
2022-11-22T22:10:16.144Z,34.45
2022-11-22T22:15:39.202Z,34.17
2022-11-22T22:21:05.311Z,35.05
2022-11-22T22:26:26.507Z,34.22
2022-11-22T22:31:47.607Z,36.00
2022-11-22T22:37:08.308Z,33.47
2022-11-22T22:42:29.269Z,35.33
